AirNav   Everest Fuels
 
 434 users online  

99MO Parkland Health Center Heliport
Bonne Terre, Missouri, USA

GOING TO BONNE TERRE?


FAA INFORMATION EFFECTIVE 03 JANUARY 2019

Location

FAA Identifier: 99MO
Lat/Long: 37-54-43.1100N / 090-31-55.6700W
37-54.718500N / 090-31.927833W
37.9119750 / -90.5321306
(estimated)
Elevation: 850 ft. / 259 m (estimated)
Variation: 01E (1995)
From city: 1 mile S of BONNE TERRE, MO
Time zone: UTC -6 (UTC -5 during Daylight Saving Time)
Zip code: 63628

Heliport Operations

Heliport use: Private use, FOR MEDICAL USE ONLY.
Activation date: 09/1996
Control tower: no
ARTCC: KANSAS CITY CENTER
FSS: COLUMBIA FLIGHT SERVICE STATION
Attendance: CONTINUOUS
Wind indicator: yes
Segmented circle: no
Lights: FOR PERIMETER LIGHTS CALL 573-760-8163.

Heliport Communications

WX AWOS-3PT at FAM (10 nm SE): 119.275 (573-756-6042)

Nearby radio navigation aids

VOR radial/distance  VOR name  Freq  Var
FAMr314/20.1FARMINGTON VORTAC115.7001E

 
NDB name  Hdg/Dist  Freq  Var  ID
SULLIVAN121/35.635602EUUV ..- ..- ...-

Heliport Services

Runway Information

Helipad H1

Dimensions: 40 x 40 ft. / 12 x 12 m
Surface: asphalt
Latitude: 37-54.718500N
Longitude: 090-31.927833W
Elevation: 850.0 ft.
Traffic pattern: leftleft

Heliport Ownership and Management from official FAA records

Ownership: Privately-owned
Owner: PARKLAND HEALTH CENTER, BONNE TERRE
7245 RAIDER ROAD
BONNE TERRE, MO 63628
Phone 573-760-8163
Manager: STEVE MARLER, ADMIN
7245 RAIDER ROAD
BONNE TERRE, MO 63628
Phone 573-358-4643

Additional Remarks

A52-H1 40 FT POWER LINE 75 FT E & 75 FT BLDG 200 FT N OF HELIPAD.
OWNER DESIRES ARPT NOT BE CHARTED.

Instrument Procedures

There are no published instrument procedures at 99MO.

Some nearby airports with instrument procedures:

8WC - Washington County Airport (9 nm W)
KFAM - Farmington Regional Airport (10 nm SE)
KFES - Festus Memorial Airport (18 nm N)
H88 - A Paul Vance Fredericktown Regional Airport (22 nm SE)
KPCD - Perryville Regional Airport (32 nm E)
 
Loc | Ops | Rwys | IFR | FBO | Links
Com | Nav | Svcs | Stats | Notes

Kansas City Aviation Department
 
Area around 99MO (Parkland Health Center Heliport)
 
Road maps at: MapQuest Bing Google
 
Aerial photo
No photo
 
Sectional chart

 
Airport distance calculator
Flying to Parkland Health Center Heliport? Find the distance to fly.

From to 99MO

Sunrise and sunset
Times for 16-Jan-2019
 Local
(UTC-6)
 Zulu
(UTC)
Morning civil twilight06:4912:49
Sunrise07:1713:17
Sunset17:0723:07
Evening civil twilight17:3523:35

Current date and time
Zulu (UTC)  16-Jan-2019 07:08:09
Local (UTC-6)  16-Jan-2019 01:08:09
 
METAR
KFAM 
10nm SE 
160656Z AUTO 19006KT 8SM CLR M01/M02 A3018 RMK AO2 SLP227 T10061017 FZRANO
TAF
KCPS 
43nm NE 
160520Z 1606/1706 22006KT P6SM OVC009 TEMPO 1606/1608 SCT009 BKN250 FM160800 24005KT 4SM -DZ BR BKN007 FM161000 27005KT 2SM -FZDZ BR OVC003 FM161400 30005KT 2SM -DZ BR OVC004 FM161600 33005KT P6SM OVC005 FM162000 05004KT P6SM OVC006 FM170000 08006KT P6SM OVC007
KSUS 
45nm N 
160520Z 1606/1706 22008KT P6SM OVC009 TEMPO 1606/1607 SCT009 BKN250 FM160700 24005KT 4SM -DZ BR BKN007 FM161000 27005KT 2SM -FZDZ BR OVC003 FM161400 30005KT 2SM -DZ BR OVC004 FM161600 33005KT P6SM OVC005 FM162000 05004KT P6SM OVC006 FM170000 08006KT P6SM OVC007
KBLV 
50nm NE 
160454Z 1604/1706 VRB06KT 9999 OVC008 WS020/27030KT 620082 QNH3019INS BECMG 1609/1610 VRB06KT 1600 -DZ BR OVC005 WS020/28030KT 660052 QNH3023INS TX04/1621Z TN00/1611Z
NOTAMs
Click for the latest NOTAMs
NOTAMs are issued by the DoD/FAA and will open in a separate window not controlled by AirNav.

 

 
 

Would you like to see your business listed on this page?

 If your business provides an interesting product or service to pilots, flight crews, aircraft, or users of the Parkland Health Center Heliport, you should consider listing it here.  To start the listing process, click on the button below
 
Add a business
 

Other Pages about Parkland Health Center Heliport

Update a link
 
Copyright © AirNav, LLC. All rights reserved. Privacy Policy  Contact